createdAt,value
2023-08-07T00:02:00.703Z,98.03
2023-08-07T00:04:27.094Z,98.01
2023-08-07T00:06:53.567Z,97.84
2023-08-07T00:09:19.931Z,97.28
2023-08-07T00:11:48.779Z,97.77
2023-08-07T00:14:20.541Z,97.67
2023-08-07T00:16:47.250Z,98.03
2023-08-07T00:19:13.959Z,97.97
2023-08-07T00:21:40.970Z,98.17
2023-08-07T00:24:07.371Z,98.21
2023-08-07T00:26:33.985Z,98.23
2023-08-07T00:29:00.492Z,98.00
2023-08-07T00:31:27.027Z,98.49
2023-08-07T00:33:55.484Z,98.59
2023-08-07T00:36:21.962Z,98.52
2023-08-07T00:38:55.132Z,98.15
2023-08-07T00:41:25.034Z,98.31
2023-08-07T00:43:54.763Z,97.70
2023-08-07T00:46:21.306Z,97.72
2023-08-07T00:48:47.741Z,97.73
2023-08-07T00:51:14.644Z,97.86
2023-08-07T00:53:41.517Z,97.29
2023-08-07T00:56:08.493Z,97.37
2023-08-07T00:58:35.037Z,97.64
2023-08-07T01:01:08.065Z,97.53
2023-08-07T01:03:35.870Z,97.48
2023-08-07T01:06:02.851Z,97.27
2023-08-07T01:08:30.196Z,97.35
2023-08-07T01:11:10.628Z,97.52
2023-08-07T01:14:00.073Z,97.43
2023-08-07T01:16:33.291Z,97.68
2023-08-07T01:19:02.022Z,97.60
2023-08-07T01:21:28.416Z,97.59
2023-08-07T01:23:54.811Z,97.64
2023-08-07T01:26:22.548Z,97.68
2023-08-07T01:29:08.826Z,97.78
2023-08-07T01:31:39.594Z,97.64
2023-08-07T01:34:09.426Z,97.73
2023-08-07T01:36:36.702Z,97.72
2023-08-07T01:39:04.783Z,97.53
2023-08-07T01:41:31.881Z,97.56
2023-08-07T01:44:00.256Z,97.67
2023-08-07T01:46:26.998Z,97.34
2023-08-07T01:48:58.889Z,97.68
2023-08-07T01:51:25.610Z,97.42
2023-08-07T01:53:52.020Z,97.36
2023-08-07T01:56:18.463Z,97.26
2023-08-07T01:58:49.333Z,97.23
2023-08-07T02:01:20.458Z,97.43
2023-08-07T02:03:47.276Z,96.70
2023-08-07T02:06:13.714Z,96.83
2023-08-07T02:08:43.934Z,96.72
2023-08-07T02:11:10.417Z,96.78
2023-08-07T02:13:36.822Z,96.59
2023-08-07T02:16:04.689Z,96.57
2023-08-07T02:18:31.178Z,96.53
2023-08-07T02:20:57.599Z,96.49
2023-08-07T02:23:23.985Z,96.24
2023-08-07T02:25:50.389Z,96.66
2023-08-07T02:28:16.861Z,96.91
2023-08-07T02:30:47.931Z,96.64
2023-08-07T02:33:14.390Z,96.83
2023-08-07T02:35:40.752Z,97.20
2023-08-07T02:38:07.199Z,96.99
2023-08-07T02:40:33.649Z,97.38
2023-08-07T02:43:00.034Z,97.23
2023-08-07T02:45:26.460Z,97.29
2023-08-07T02:47:52.870Z,97.70
2023-08-07T02:50:19.328Z,97.64
2023-08-07T02:52:46.840Z,97.58
2023-08-07T02:55:13.194Z,97.26
2023-08-07T02:57:42.479Z,97.33
2023-08-07T03:00:09.513Z,97.63
2023-08-07T03:02:35.900Z,97.43
2023-08-07T03:05:02.299Z,97.42
2023-08-07T03:07:28.807Z,97.65
2023-08-07T03:09:55.215Z,97.57
2023-08-07T03:12:22.286Z,97.84
2023-08-07T03:14:48.678Z,97.74
2023-08-07T03:17:15.124Z,97.58
2023-08-07T03:19:43.890Z,98.10
2023-08-07T03:22:10.723Z,97.81
2023-08-07T03:24:37.102Z,97.73
2023-08-07T03:27:03.738Z,97.54
2023-08-07T03:29:30.138Z,97.29
2023-08-07T03:31:56.885Z,97.77
2023-08-07T03:34:23.371Z,97.93
2023-08-07T03:36:49.800Z,97.49
2023-08-07T03:39:16.447Z,97.70
2023-08-07T03:41:42.881Z,98.16
2023-08-07T03:44:09.292Z,97.80
2023-08-07T03:46:35.704Z,98.25
2023-08-07T03:49:02.112Z,98.17
2023-08-07T03:51:33.676Z,98.00
2023-08-07T03:54:00.661Z,98.17
2023-08-07T03:56:27.055Z,98.19
2023-08-07T03:58:53.854Z,98.06
2023-08-07T04:01:20.348Z,98.31
2023-08-07T04:03:49.225Z,98.31
2023-08-07T04:06:17.097Z,98.42
2023-08-07T04:08:46.298Z,98.23
2023-08-07T04:11:12.737Z,98.36
2023-08-07T04:13:39.264Z,98.05
2023-08-07T04:16:06.403Z,98.26
2023-08-07T04:18:39.063Z,98.55
2023-08-07T04:21:05.742Z,98.25
2023-08-07T04:23:32.601Z,98.54
2023-08-07T04:26:00.441Z,98.32
2023-08-07T04:28:29.363Z,98.36
2023-08-07T04:30:55.970Z,98.43
2023-08-07T04:33:26.370Z,98.44
2023-08-07T04:35:53.124Z,98.83
2023-08-07T04:38:20.343Z,98.88
2023-08-07T04:40:48.045Z,98.97
2023-08-07T04:43:15.615Z,99.05
2023-08-07T04:45:42.584Z,98.94
2023-08-07T04:48:09.435Z,99.18
2023-08-07T04:50:36.325Z,99.41
2023-08-07T04:53:02.773Z,99.33
2023-08-07T04:55:29.224Z,99.10
2023-08-07T04:57:57.239Z,99.50
2023-08-07T05:00:24.111Z,99.35
2023-08-07T05:02:50.894Z,99.36
2023-08-07T05:05:23.760Z,99.29
2023-08-07T05:07:50.510Z,99.13
2023-08-07T05:10:16.940Z,99.56
2023-08-07T05:12:43.356Z,99.35
2023-08-07T05:15:10.400Z,99.57
2023-08-07T05:17:36.909Z,99.59
2023-08-07T05:20:03.755Z,99.55
2023-08-07T05:22:34.192Z,99.12
2023-08-07T05:25:00.963Z,98.90
2023-08-07T05:27:27.427Z,98.97
2023-08-07T05:29:53.889Z,98.93
2023-08-07T05:32:20.451Z,98.89
2023-08-07T05:34:46.886Z,99.09
2023-08-07T05:37:13.338Z,99.25
2023-08-07T05:39:39.702Z,99.37
2023-08-07T05:42:06.355Z,99.27
2023-08-07T05:44:32.780Z,99.21
2023-08-07T05:46:59.155Z,99.08
2023-08-07T05:49:26.602Z,99.36
2023-08-07T05:51:55.802Z,99.55
2023-08-07T05:54:22.866Z,99.64
2023-08-07T05:56:52.527Z,99.74
2023-08-07T05:59:22.436Z,99.87
2023-08-07T06:01:49.350Z,99.70
2023-08-07T06:04:15.888Z,99.68
2023-08-07T06:06:43.695Z,99.59
2023-08-07T06:09:10.634Z,99.23
2023-08-07T06:11:38.023Z,98.86
2023-08-07T06:14:05.993Z,98.62
2023-08-07T06:16:32.654Z,99.14
2023-08-07T06:18:59.200Z,99.15
2023-08-07T06:21:25.752Z,98.81
2023-08-07T06:23:52.734Z,98.84
2023-08-07T06:26:19.546Z,99.04
2023-08-07T06:28:46.879Z,99.21
2023-08-07T06:31:14.848Z,99.31
2023-08-07T06:33:41.362Z,98.74
2023-08-07T06:36:09.600Z,97.91
2023-08-07T06:38:36.011Z,96.60
2023-08-07T06:41:02.587Z,96.60
2023-08-07T06:43:29.168Z,96.49
2023-08-07T06:45:56.948Z,96.55
2023-08-07T06:48:24.085Z,96.59
2023-08-07T06:50:52.013Z,96.92
2023-08-07T06:53:19.068Z,95.47
2023-08-07T06:55:46.149Z,95.22
2023-08-07T06:58:17.547Z,95.78
2023-08-07T07:00:46.560Z,91.14
2023-08-07T07:03:13.213Z,83.34
2023-08-07T07:05:39.662Z,80.08
2023-08-07T07:08:07.831Z,78.06
2023-08-07T07:10:35.945Z,78.49
2023-08-07T07:13:02.458Z,78.01
2023-08-07T07:15:28.933Z,80.75
2023-08-07T07:17:59.628Z,82.82
2023-08-07T07:20:27.737Z,84.64
2023-08-07T07:22:54.217Z,85.21
2023-08-07T07:25:22.209Z,86.39
2023-08-07T07:27:55.595Z,88.09
2023-08-07T07:30:24.503Z,88.64
2023-08-07T07:32:51.329Z,86.63
2023-08-07T07:35:17.718Z,86.71
2023-08-07T07:37:44.197Z,84.41
2023-08-07T07:40:12.055Z,82.80
2023-08-07T07:42:38.749Z,82.77
2023-08-07T07:45:06.248Z,81.07
2023-08-07T07:47:32.674Z,81.29
2023-08-07T07:50:08.567Z,82.06
2023-08-07T07:52:35.260Z,82.32
2023-08-07T07:55:01.830Z,81.61
2023-08-07T07:57:28.230Z,81.42
2023-08-07T07:59:54.675Z,81.84
2023-08-07T08:02:23.301Z,82.64
2023-08-07T08:04:49.845Z,84.14
2023-08-07T08:07:16.606Z,84.90
2023-08-07T08:09:44.319Z,85.88
2023-08-07T08:12:11.407Z,83.68
2023-08-07T08:17:24.907Z,82.93
2023-08-07T08:18:10.585Z,83.27
2023-08-07T08:19:51.742Z,84.31
2023-08-07T08:22:18.741Z,83.65
2023-08-07T08:24:45.124Z,84.14
2023-08-07T08:27:11.508Z,83.48
2023-08-07T08:29:38.012Z,83.47
2023-08-07T08:32:05.029Z,83.47
2023-08-07T08:34:31.424Z,84.47
2023-08-07T08:36:58.436Z,83.96
2023-08-07T08:39:24.952Z,83.81
2023-08-07T08:41:51.419Z,83.17
2023-08-07T08:44:20.527Z,80.73
2023-08-07T08:46:50.444Z,82.34
2023-08-07T08:49:25.815Z,82.67
2023-08-07T08:51:52.331Z,82.31
2023-08-07T08:54:19.426Z,81.29
2023-08-07T08:56:46.644Z,78.30
2023-08-07T08:59:13.444Z,78.53
2023-08-07T09:01:40.573Z,80.14
2023-08-07T09:04:07.106Z,81.93
2023-08-07T09:06:33.891Z,79.25
2023-08-07T09:09:02.258Z,77.96
2023-08-07T09:11:32.715Z,78.98
2023-08-07T09:14:02.156Z,82.05
2023-08-07T09:16:29.810Z,81.87
2023-08-07T09:18:59.697Z,81.87
2023-08-07T09:21:26.830Z,82.49
2023-08-07T09:23:53.201Z,78.73
2023-08-07T09:26:24.673Z,79.28
2023-08-07T09:28:54.100Z,76.86
2023-08-07T09:31:21.828Z,75.77
2023-08-07T09:33:51.755Z,76.69
2023-08-07T09:36:19.088Z,77.65
2023-08-07T09:38:50.746Z,78.05
2023-08-07T09:41:20.989Z,78.93
2023-08-07T09:43:47.452Z,78.65
2023-08-07T09:46:14.049Z,78.01
2023-08-07T09:48:45.103Z,77.26
2023-08-07T09:51:12.161Z,78.42
2023-08-07T09:53:38.664Z,78.47
2023-08-07T09:56:05.315Z,76.74
2023-08-07T09:58:31.829Z,76.13
2023-08-07T10:01:03.929Z,75.57
2023-08-07T10:03:31.462Z,74.53
2023-08-07T10:05:58.773Z,75.31
2023-08-07T10:08:25.915Z,76.76
2023-08-07T10:10:53.095Z,75.68
2023-08-07T10:13:23.635Z,75.89
2023-08-07T10:15:55.159Z,78.69
2023-08-07T10:18:22.646Z,76.84
2023-08-07T10:20:49.494Z,77.03
2023-08-07T10:23:18.257Z,79.01
2023-08-07T10:25:47.499Z,78.18
2023-08-07T10:28:17.751Z,79.11
2023-08-07T10:30:44.272Z,76.75
2023-08-07T10:33:13.078Z,76.23
2023-08-07T10:35:45.978Z,76.13
2023-08-07T10:38:12.650Z,76.57
2023-08-07T10:41:00.638Z,74.90
2023-08-07T10:43:28.748Z,73.61
2023-08-07T10:46:03.402Z,74.36
2023-08-07T10:48:29.815Z,74.23
2023-08-07T10:50:56.233Z,72.46
2023-08-07T10:53:36.048Z,74.41
2023-08-07T10:56:09.053Z,74.88
2023-08-07T10:58:37.539Z,75.05
2023-08-07T11:01:31.304Z,75.63
2023-08-07T11:04:03.870Z,71.64
2023-08-07T11:06:36.683Z,71.76
2023-08-07T11:09:05.896Z,72.87
2023-08-07T11:11:47.197Z,72.92
2023-08-07T11:14:17.845Z,69.06
2023-08-07T11:16:45.643Z,71.90
2023-08-07T11:19:20.693Z,71.47
2023-08-07T11:21:48.881Z,71.96
2023-08-07T11:24:17.342Z,71.93
2023-08-07T11:26:45.640Z,69.15
2023-08-07T11:29:12.163Z,70.66
2023-08-07T11:31:38.814Z,71.32
2023-08-07T11:34:05.332Z,71.53
2023-08-07T11:36:32.854Z,72.81
2023-08-07T11:38:59.238Z,72.59
2023-08-07T11:41:25.794Z,72.36
2023-08-07T11:43:54.861Z,71.75
2023-08-07T11:46:22.475Z,66.42
2023-08-07T11:48:49.097Z,70.32
2023-08-07T11:51:15.645Z,71.23
2023-08-07T11:53:43.024Z,69.90
2023-08-07T11:56:11.683Z,67.87
2023-08-07T11:58:41.399Z,68.15
2023-08-07T12:01:11.363Z,64.28
2023-08-07T12:03:40.048Z,66.56
2023-08-07T12:06:08.148Z,67.68
2023-08-07T12:08:39.593Z,66.89
2023-08-07T12:11:08.227Z,67.76
2023-08-07T12:13:36.370Z,71.43
2023-08-07T12:16:06.464Z,65.41
2023-08-07T12:18:33.764Z,64.55
2023-08-07T12:21:05.579Z,67.12
2023-08-07T12:23:35.344Z,62.96
2023-08-07T12:26:02.511Z,62.35
2023-08-07T12:28:28.869Z,57.79
2023-08-07T12:30:55.452Z,58.65
2023-08-07T12:33:24.556Z,55.96
2023-08-07T12:35:51.100Z,61.96
2023-08-07T12:38:18.515Z,56.84
2023-08-07T12:40:45.153Z,54.67
2023-08-07T12:43:11.724Z,55.67
2023-08-07T12:48:08.372Z,54.78
2023-08-07T12:50:35.305Z,59.03
2023-08-07T12:53:02.624Z,58.37
2023-08-07T12:55:30.678Z,59.71
2023-08-07T12:57:58.635Z,60.83
2023-08-07T13:00:27.614Z,58.08
2023-08-07T13:02:55.892Z,56.61
2023-08-07T13:05:23.589Z,56.38
2023-08-07T13:07:55.126Z,56.33
2023-08-07T13:10:22.406Z,56.86
2023-08-07T13:12:50.477Z,55.44
2023-08-07T13:15:18.314Z,56.92
2023-08-07T13:17:45.314Z,55.12
2023-08-07T13:20:14.067Z,55.43
2023-08-07T13:22:43.442Z,54.91
2023-08-07T13:25:11.040Z,58.30
2023-08-07T13:27:38.340Z,57.60
2023-08-07T13:30:05.698Z,56.62
2023-08-07T13:32:33.285Z,56.66
2023-08-07T13:34:59.856Z,54.81
2023-08-07T13:37:26.406Z,56.90
2023-08-07T13:39:54.047Z,57.37
2023-08-07T13:42:20.734Z,58.01
2023-08-07T13:44:47.256Z,59.12
2023-08-07T13:47:13.678Z,56.85
2023-08-07T13:49:40.366Z,57.35
2023-08-07T13:52:07.267Z,59.51
2023-08-07T13:54:33.875Z,54.03
2023-08-07T13:57:00.375Z,58.23
2023-08-07T13:59:27.077Z,56.07
2023-08-07T14:01:55.279Z,55.80
2023-08-07T14:04:21.960Z,55.40
2023-08-07T14:06:48.429Z,55.06
2023-08-07T14:09:15.146Z,56.45
2023-08-07T14:11:41.691Z,54.55
2023-08-07T14:14:08.309Z,56.84
2023-08-07T14:16:35.788Z,56.10
2023-08-07T14:19:03.599Z,56.57
2023-08-07T14:21:30.005Z,55.13
2023-08-07T14:23:56.405Z,51.44
2023-08-07T14:26:23.060Z,55.90
2023-08-07T14:28:50.820Z,53.37
2023-08-07T14:31:17.310Z,55.60
2023-08-07T14:33:43.758Z,56.80
2023-08-07T14:36:10.331Z,54.87
2023-08-07T14:38:36.729Z,54.27
2023-08-07T14:41:06.279Z,55.82
2023-08-07T14:43:33.069Z,54.68
2023-08-07T14:45:59.821Z,55.55
2023-08-07T14:48:26.312Z,54.44
2023-08-07T14:50:52.957Z,54.84
2023-08-07T14:53:19.459Z,56.11
2023-08-07T14:55:46.375Z,56.75
2023-08-07T14:58:13.612Z,54.32
2023-08-07T15:00:40.093Z,56.82
2023-08-07T15:03:06.599Z,55.37
2023-08-07T15:05:33.334Z,54.13
2023-08-07T15:08:02.082Z,55.07
2023-08-07T15:10:29.449Z,54.56
2023-08-07T15:12:56.864Z,53.38
2023-08-07T15:15:23.677Z,56.17
2023-08-07T15:17:50.134Z,57.25
2023-08-07T15:20:16.747Z,56.71
2023-08-07T15:22:43.224Z,56.81
2023-08-07T15:25:09.946Z,55.72
2023-08-07T15:27:36.413Z,58.96
2023-08-07T15:30:03.204Z,58.61
2023-08-07T15:32:29.873Z,57.97
2023-08-07T15:34:56.296Z,58.47
2023-08-07T15:37:22.764Z,59.60
2023-08-07T15:39:49.143Z,58.57
2023-08-07T15:42:15.563Z,57.48
2023-08-07T15:44:41.908Z,57.34
2023-08-07T15:47:09.011Z,58.34
2023-08-07T15:49:36.621Z,57.69
2023-08-07T15:52:03.086Z,57.68
2023-08-07T15:54:29.457Z,58.47
2023-08-07T15:56:58.547Z,58.63
2023-08-07T15:59:27.720Z,58.72
2023-08-07T16:01:54.176Z,59.50
2023-08-07T16:04:20.658Z,59.16
2023-08-07T16:06:47.048Z,58.18
2023-08-07T16:09:13.408Z,59.46
2023-08-07T16:11:39.844Z,58.30
2023-08-07T16:14:06.255Z,58.54
2023-08-07T16:16:32.774Z,58.49
2023-08-07T16:18:59.227Z,60.95
2023-08-07T16:21:25.647Z,61.16
2023-08-07T16:23:52.212Z,62.73
2023-08-07T16:26:18.661Z,61.59
2023-08-07T16:28:46.535Z,62.79
2023-08-07T16:31:13.115Z,64.73
2023-08-07T16:33:40.089Z,63.87
2023-08-07T16:36:06.902Z,62.92
2023-08-07T16:38:33.283Z,64.65
2023-08-07T16:40:59.746Z,64.46
2023-08-07T16:43:26.349Z,64.66
2023-08-07T16:45:53.206Z,65.55
2023-08-07T16:48:19.674Z,65.88
2023-08-07T16:50:56.879Z,66.83
2023-08-07T16:53:33.031Z,67.01
2023-08-07T16:55:59.491Z,69.43
2023-08-07T16:58:25.916Z,65.96
2023-08-07T17:00:52.450Z,65.63
2023-08-07T17:03:18.969Z,67.05
2023-08-07T17:05:45.397Z,66.33
2023-08-07T17:08:11.852Z,64.83
2023-08-07T17:10:38.226Z,67.58
2023-08-07T17:13:04.781Z,67.24
2023-08-07T17:15:31.255Z,66.65
2023-08-07T17:17:59.016Z,67.75
2023-08-07T17:20:25.456Z,67.16
2023-08-07T17:22:51.886Z,68.16
2023-08-07T17:25:18.287Z,67.55
2023-08-07T17:27:44.651Z,69.98
2023-08-07T17:30:11.299Z,68.45
2023-08-07T17:32:38.118Z,69.91
2023-08-07T17:35:05.082Z,70.28
2023-08-07T17:37:31.561Z,71.87
2023-08-07T17:39:57.973Z,70.96
2023-08-07T17:42:24.384Z,70.91
2023-08-07T17:44:51.608Z,71.56
2023-08-07T17:47:18.023Z,70.66
2023-08-07T17:49:44.427Z,72.06
2023-08-07T17:52:10.902Z,71.27
2023-08-07T17:54:38.808Z,71.70
2023-08-07T17:57:06.303Z,71.88
2023-08-07T17:59:32.786Z,71.00
2023-08-07T18:01:59.187Z,71.57
2023-08-07T18:04:25.634Z,71.09
2023-08-07T18:06:54.535Z,71.65
2023-08-07T18:09:20.902Z,71.55
2023-08-07T18:11:47.360Z,70.93
2023-08-07T18:14:13.766Z,70.83
2023-08-07T18:16:40.245Z,71.01
2023-08-07T18:19:06.656Z,71.05
2023-08-07T18:21:33.097Z,72.32
2023-08-07T18:23:59.508Z,71.79
2023-08-07T18:26:25.855Z,72.71
2023-08-07T18:28:52.257Z,71.16
2023-08-07T18:31:18.663Z,72.74
2023-08-07T18:33:45.043Z,71.85
2023-08-07T18:36:11.428Z,71.98
2023-08-07T18:38:37.834Z,72.22
2023-08-07T18:41:06.824Z,73.58
2023-08-07T18:43:33.436Z,73.52
2023-08-07T18:45:59.906Z,73.53
2023-08-07T18:48:26.409Z,74.32
2023-08-07T18:50:52.886Z,73.88
2023-08-07T18:53:19.243Z,74.08
2023-08-07T18:55:45.650Z,74.62
2023-08-07T18:58:12.122Z,74.87
2023-08-07T19:00:38.511Z,75.40
2023-08-07T19:03:08.103Z,75.27
2023-08-07T19:05:34.598Z,75.65
2023-08-07T19:08:00.960Z,75.37
2023-08-07T19:10:27.335Z,76.09
2023-08-07T19:12:53.799Z,76.32
2023-08-07T19:15:20.255Z,76.17
2023-08-07T19:17:46.903Z,76.55
2023-08-07T19:20:13.525Z,76.71
2023-08-07T19:22:40.545Z,77.44
2023-08-07T19:25:07.792Z,77.21
2023-08-07T19:27:34.232Z,77.42
2023-08-07T19:30:00.688Z,77.88
2023-08-07T19:32:27.534Z,77.69
2023-08-07T19:34:54.014Z,77.75
2023-08-07T19:37:20.470Z,77.24
2023-08-07T19:39:46.894Z,77.76
2023-08-07T19:42:13.335Z,78.58
2023-08-07T19:44:39.851Z,78.88
2023-08-07T19:47:06.418Z,78.37
2023-08-07T19:49:32.884Z,79.31
2023-08-07T19:51:59.333Z,78.98
2023-08-07T19:54:25.740Z,79.46
2023-08-07T19:56:52.392Z,79.57
2023-08-07T19:59:20.033Z,79.59
2023-08-07T20:01:46.480Z,79.83
2023-08-07T20:04:14.560Z,80.62
2023-08-07T20:06:41.179Z,80.47
2023-08-07T20:09:07.976Z,80.26
2023-08-07T20:11:38.276Z,80.83
2023-08-07T20:14:04.828Z,80.75
2023-08-07T20:16:32.865Z,81.13
2023-08-07T20:19:00.056Z,81.19
2023-08-07T20:21:26.534Z,81.69
2023-08-07T20:23:52.913Z,82.04
2023-08-07T20:26:19.911Z,82.13
2023-08-07T20:28:46.393Z,82.61
2023-08-07T20:31:12.898Z,82.92
2023-08-07T20:33:39.398Z,82.71
2023-08-07T20:36:06.474Z,83.06
2023-08-07T20:38:32.919Z,83.81
2023-08-07T20:40:59.450Z,84.24
2023-08-07T20:43:25.929Z,84.46
2023-08-07T20:45:52.334Z,85.27
2023-08-07T20:48:18.837Z,85.63
2023-08-07T20:50:45.271Z,85.56
2023-08-07T20:53:11.688Z,86.18
2023-08-07T20:55:38.084Z,86.12
2023-08-07T20:58:04.698Z,86.39
2023-08-07T21:00:31.133Z,86.74
2023-08-07T21:02:57.548Z,87.13
2023-08-07T21:05:24.019Z,87.25
2023-08-07T21:07:50.504Z,86.92
2023-08-07T21:10:17.067Z,86.76
2023-08-07T21:12:43.450Z,87.14
2023-08-07T21:15:10.650Z,87.33
2023-08-07T21:17:37.059Z,87.13
2023-08-07T21:20:03.907Z,87.37
2023-08-07T21:22:30.330Z,87.71
2023-08-07T21:24:56.810Z,87.44
2023-08-07T21:27:23.995Z,88.26
2023-08-07T21:29:50.405Z,88.94
2023-08-07T21:32:17.030Z,88.92
2023-08-07T21:34:43.411Z,89.55
2023-08-07T21:37:09.865Z,89.75
2023-08-07T21:39:36.274Z,89.66
2023-08-07T21:42:03.369Z,89.70
2023-08-07T21:44:29.914Z,89.88
2023-08-07T21:46:56.344Z,89.72
2023-08-07T21:49:22.841Z,89.84
2023-08-07T21:51:49.351Z,90.39
2023-08-07T21:54:17.222Z,90.07
2023-08-07T21:56:44.208Z,90.40
2023-08-07T21:59:10.798Z,90.66
2023-08-07T22:01:37.583Z,90.71
2023-08-07T22:04:04.296Z,91.03
2023-08-07T22:06:30.652Z,91.24
2023-08-07T22:08:57.076Z,91.09
2023-08-07T22:11:23.684Z,91.31
2023-08-07T22:13:50.096Z,91.52
2023-08-07T22:16:16.772Z,92.09
2023-08-07T22:18:43.221Z,92.27
2023-08-07T22:21:09.750Z,92.34
2023-08-07T22:23:36.190Z,92.41
2023-08-07T22:26:02.752Z,92.18
2023-08-07T22:28:29.248Z,91.92
2023-08-07T22:30:55.732Z,92.00
2023-08-07T22:33:22.127Z,92.16
2023-08-07T22:35:48.578Z,91.80
2023-08-07T22:38:15.064Z,92.00
2023-08-07T22:40:41.438Z,92.09
2023-08-07T22:43:10.056Z,92.13
2023-08-07T22:45:38.380Z,92.41
2023-08-07T22:48:05.158Z,92.51
2023-08-07T22:50:31.855Z,92.47
2023-08-07T22:52:58.334Z,92.05
2023-08-07T22:55:24.927Z,92.10
2023-08-07T22:57:51.326Z,92.08
2023-08-07T23:00:17.957Z,91.46
2023-08-07T23:02:44.448Z,91.92
2023-08-07T23:05:10.864Z,91.88
2023-08-07T23:07:37.800Z,92.20
2023-08-07T23:10:04.419Z,92.47
2023-08-07T23:12:30.778Z,92.65
2023-08-07T23:14:57.186Z,92.39
2023-08-07T23:17:23.721Z,92.40
2023-08-07T23:19:50.152Z,91.83
2023-08-07T23:22:16.603Z,91.97
2023-08-07T23:24:43.040Z,92.42
2023-08-07T23:27:09.482Z,92.32
2023-08-07T23:29:36.050Z,92.34
2023-08-07T23:32:02.604Z,92.73
2023-08-07T23:34:28.974Z,92.57
2023-08-07T23:36:55.392Z,92.83
2023-08-07T23:39:21.800Z,93.40
2023-08-07T23:41:48.201Z,93.72
2023-08-07T23:44:14.617Z,93.46
2023-08-07T23:46:41.054Z,93.57
2023-08-07T23:49:07.577Z,93.74
2023-08-07T23:51:34.323Z,93.62
2023-08-07T23:54:00.745Z,94.03
2023-08-07T23:56:27.163Z,94.04
2023-08-07T23:58:53.604Z,94.24
